Airfield :
LOGIN :

Register | Disclaimer

   EN    FR    IT 

 










Legend :    VFR   Marginal VFR   IFR   Intensive IFR   Very Intensive IFR
Visi :
Ceiling :
>= 8 km
>= 3000ft
5 to 8 km
1000 to 3000 ft
1500m to 5 km
500 to 1000 ft
800 to 1500m
200 to 500 ft
< 800m
< 200 ft
Symbols :   Thunderstorms  Fog  Heavy snow  Heavy precipitations  Wind > 20 kt
SIGMETs :     Misc.  Thunderstorms  Icing  Turbulence  Mountain Waves  Volcanic Ashes







- Airport Elevation : 147 ft
- IATA code : DUS


EDDL - Düsseldorf Int.

CURRENT METAR :
  • 200220Z 15007KT CAVOK 16/12 Q1018 NOSIG

EXPIRED METARs :
  • 200150Z 15004KT CAVOK 15/12 Q1018 NOSIG
  • 200120Z 16003KT 140V200 CAVOK 15/12 Q1017 NOSIG
  • 200050Z 16004KT CAVOK 16/12 Q1017 NOSIG
  • 200020Z 18006KT CAVOK 17/12 Q1018 NOSIG
  • 192350Z 18006KT CAVOK 17/12 Q1018 NOSIG

TAF TAF EDDL
Valid from the 20 at 00:00 until the 21 at 06:00 UTC


192300Z 2000/2106 17006KT CAVOK
BECMG 2006/2009 22013KT
BECMG 2016/2019 16007KT
BECMG 2022/2101 19015KT
TEMPO 2103/2106 19015G25KT
No reported NOTAMs for that airfield.



MET'MAP, your aeronautical weather chart ! - Copyright ORBIFLY December 2007 - Disclaimer

ORBIFLY MET'MAP TEAM :

Programming & Development : Alexandra Zaïnal
Concept & Development : Baudouin d'Aumeries
Co-Development & Prog : Marc-Olivier Méhu
Technical & hardware support : Manuel Goepfert

Contact : metmap@orbifly.com




SOURCES & CREDITS :

   NOAA